createdAt,value
2022-09-14T00:01:33.399Z,18.78
2022-09-14T00:04:03.348Z,18.75
2022-09-14T00:06:30.853Z,18.71
2022-09-14T00:08:59.061Z,18.67
2022-09-14T00:11:28.033Z,18.61
2022-09-14T00:13:56.207Z,18.59
2022-09-14T00:16:34.565Z,18.53
2022-09-14T00:19:06.126Z,18.53
2022-09-14T00:21:34.931Z,18.50
2022-09-14T00:24:01.555Z,18.46
2022-09-14T00:26:28.139Z,18.44
2022-09-14T00:28:56.961Z,18.41
2022-09-14T00:31:27.250Z,18.39
2022-09-14T00:33:53.953Z,18.31
2022-09-14T00:36:26.382Z,18.32
2022-09-14T00:38:58.338Z,18.25
2022-09-14T00:41:27.108Z,18.31
2022-09-14T00:44:07.356Z,18.37
2022-09-14T00:46:48.382Z,18.55
2022-09-14T00:49:22.987Z,18.47
2022-09-14T00:52:15.414Z,18.48
2022-09-14T00:54:48.889Z,18.49
2022-09-14T00:57:21.309Z,18.41
2022-09-14T00:59:51.664Z,18.44
2022-09-14T01:02:19.515Z,18.46
2022-09-14T01:04:46.948Z,18.44
2022-09-14T01:07:43.186Z,18.49
2022-09-14T01:10:24.697Z,18.54
2022-09-14T01:13:03.334Z,18.46
2022-09-14T01:15:38.804Z,18.40
2022-09-14T01:18:15.459Z,18.32
2022-09-14T01:20:56.358Z,18.42
2022-09-14T01:23:37.737Z,18.44
2022-09-14T01:26:28.186Z,18.22
2022-09-14T01:29:15.458Z,18.34
2022-09-14T01:32:02.399Z,18.34
2022-09-14T01:34:47.219Z,18.30
2022-09-14T01:37:21.880Z,18.29
2022-09-14T01:39:54.088Z,18.29
2022-09-14T01:42:26.503Z,18.20
2022-09-14T01:44:59.643Z,18.22
2022-09-14T01:47:31.748Z,18.23
2022-09-14T01:50:10.507Z,18.22
2022-09-14T01:53:17.136Z,18.13
2022-09-14T01:55:49.331Z,18.12
2022-09-14T01:58:26.189Z,18.18
2022-09-14T02:00:57.125Z,18.18
2022-09-14T02:03:32.611Z,18.10
2022-09-14T02:06:11.475Z,18.15
2022-09-14T02:08:38.548Z,18.05
2022-09-14T02:11:05.032Z,18.09
2022-09-14T02:13:31.816Z,18.11
2022-09-14T02:15:58.425Z,18.09
2022-09-14T02:18:24.904Z,18.06
2022-09-14T02:20:57.904Z,18.06
2022-09-14T02:23:24.414Z,18.03
2022-09-14T02:25:50.812Z,17.88
2022-09-14T02:28:19.735Z,17.96
2022-09-14T02:30:51.968Z,17.97
2022-09-14T02:33:32.936Z,17.96
2022-09-14T02:36:09.269Z,17.90
2022-09-14T02:39:06.834Z,17.96
2022-09-14T02:41:46.187Z,17.92
2022-09-14T02:44:35.379Z,17.92
2022-09-14T02:47:46.890Z,18.00
2022-09-14T02:50:33.893Z,18.03
2022-09-14T02:53:27.035Z,18.02
2022-09-14T02:55:59.336Z,17.90
2022-09-14T02:58:43.908Z,17.65
2022-09-14T03:01:13.950Z,17.98
2022-09-14T03:03:40.618Z,17.97
2022-09-14T03:06:07.169Z,17.94
2022-09-14T03:08:38.386Z,17.89
2022-09-14T03:11:05.499Z,17.90
2022-09-14T03:13:32.291Z,17.92
2022-09-14T03:15:59.005Z,17.86
2022-09-14T03:18:25.404Z,17.79
2022-09-14T03:20:51.860Z,17.75
2022-09-14T03:23:18.209Z,17.76
2022-09-14T03:25:45.185Z,17.74
2022-09-14T03:28:16.818Z,17.75
2022-09-14T03:30:43.262Z,17.74
2022-09-14T03:33:09.719Z,17.67
2022-09-14T03:35:36.091Z,17.68
2022-09-14T03:38:04.860Z,17.66
2022-09-14T03:40:31.308Z,17.61
2022-09-14T03:42:58.098Z,17.59
2022-09-14T03:45:24.751Z,17.59
2022-09-14T03:47:51.240Z,17.61
2022-09-14T03:50:19.061Z,17.65
2022-09-14T03:52:48.196Z,17.64
2022-09-14T03:55:15.126Z,17.65
2022-09-14T03:57:43.777Z,17.63
2022-09-14T04:00:11.402Z,17.63
2022-09-14T04:02:38.396Z,17.63
2022-09-14T04:05:05.529Z,17.66
2022-09-14T04:07:31.939Z,17.67
2022-09-14T04:09:58.516Z,17.66
2022-09-14T04:12:24.969Z,17.65
2022-09-14T04:14:51.405Z,17.64
2022-09-14T04:17:17.970Z,17.61
2022-09-14T04:19:44.392Z,17.58
2022-09-14T04:22:10.838Z,17.59
2022-09-14T04:24:37.334Z,17.58
2022-09-14T04:27:03.854Z,17.53
2022-09-14T04:29:30.668Z,17.53
2022-09-14T04:31:57.511Z,17.52
2022-09-14T04:34:24.012Z,17.49
2022-09-14T04:36:50.499Z,17.48
2022-09-14T04:39:17.132Z,17.47
2022-09-14T04:41:43.604Z,17.45
2022-09-14T04:44:10.593Z,17.43
2022-09-14T04:46:46.089Z,17.41
2022-09-14T04:49:14.740Z,17.42
2022-09-14T04:51:41.209Z,17.41
2022-09-14T04:54:07.723Z,17.39
2022-09-14T04:56:37.060Z,17.36
2022-09-14T04:59:05.574Z,17.35
2022-09-14T05:01:38.709Z,17.34
2022-09-14T05:04:07.033Z,17.36
2022-09-14T05:06:35.712Z,17.38
2022-09-14T05:09:04.910Z,17.37
2022-09-14T05:11:36.111Z,17.37
2022-09-14T05:14:03.297Z,17.38
2022-09-14T05:16:36.679Z,17.42
2022-09-14T05:19:06.445Z,17.40
2022-09-14T05:21:34.801Z,17.42
2022-09-14T05:24:08.322Z,17.37
2022-09-14T05:26:34.724Z,17.42
2022-09-14T05:29:02.548Z,17.43
2022-09-14T05:31:30.402Z,17.42
2022-09-14T05:33:57.884Z,17.44
2022-09-14T05:36:24.977Z,17.41
2022-09-14T05:38:52.018Z,17.41
2022-09-14T05:41:18.425Z,17.43
2022-09-14T05:43:47.207Z,17.45
2022-09-14T05:46:16.502Z,17.47
2022-09-14T05:48:43.833Z,17.49
2022-09-14T05:51:21.545Z,17.47
2022-09-14T05:53:58.413Z,17.49
2022-09-14T05:56:27.684Z,17.49
2022-09-14T05:58:54.757Z,17.53
2022-09-14T06:01:22.551Z,17.52
2022-09-14T06:03:50.366Z,17.51
2022-09-14T06:06:21.032Z,17.51
2022-09-14T06:08:52.331Z,17.53
2022-09-14T06:11:21.639Z,17.54
2022-09-14T06:13:49.510Z,17.55
2022-09-14T06:16:18.579Z,17.56
2022-09-14T06:18:46.113Z,17.58
2022-09-14T06:21:15.210Z,17.61
2022-09-14T06:23:44.540Z,17.56
2022-09-14T06:26:16.135Z,17.55
2022-09-14T06:28:42.877Z,17.56
2022-09-14T06:31:12.581Z,17.56
2022-09-14T06:33:43.782Z,17.56
2022-09-14T06:36:15.576Z,17.55
2022-09-14T06:38:42.690Z,17.56
2022-09-14T06:41:12.192Z,17.55
2022-09-14T06:43:40.593Z,17.61
2022-09-14T06:46:20.709Z,17.63
2022-09-14T06:48:59.722Z,17.69
2022-09-14T06:51:27.908Z,17.75
2022-09-14T06:53:56.192Z,17.75
2022-09-14T06:56:22.616Z,17.80
2022-09-14T06:58:52.169Z,17.83
2022-09-14T07:01:19.901Z,17.83
2022-09-14T07:03:47.155Z,17.82
2022-09-14T07:06:25.214Z,17.88
2022-09-14T07:08:53.040Z,17.84
2022-09-14T07:11:25.629Z,17.93
2022-09-14T07:13:54.709Z,18.04
2022-09-14T07:16:21.843Z,18.08
2022-09-14T07:18:48.293Z,18.17
2022-09-14T07:21:18.012Z,18.16
2022-09-14T07:23:45.941Z,18.17
2022-09-14T07:26:16.196Z,18.19
2022-09-14T07:28:44.342Z,18.10
2022-09-14T07:31:35.966Z,18.11
2022-09-14T07:34:04.574Z,18.20
2022-09-14T07:36:35.065Z,18.18
2022-09-14T07:39:04.475Z,18.22
2022-09-14T07:41:32.923Z,18.32
2022-09-14T07:44:03.317Z,18.41
2022-09-14T07:47:07.267Z,18.40
2022-09-14T07:50:11.721Z,18.50
2022-09-14T07:53:15.512Z,18.48
2022-09-14T07:56:20.424Z,18.57
2022-09-14T07:59:36.519Z,18.73
2022-09-14T08:02:06.955Z,18.94
2022-09-14T08:04:39.253Z,18.88
2022-09-14T08:07:09.068Z,19.08
2022-09-14T08:09:35.470Z,19.17
2022-09-14T08:12:02.458Z,19.15
2022-09-14T08:14:28.892Z,19.19
2022-09-14T08:16:55.623Z,19.30
2022-09-14T08:19:22.092Z,19.43
2022-09-14T08:21:48.721Z,19.38
2022-09-14T08:24:18.143Z,19.33
2022-09-14T08:26:47.753Z,19.20
2022-09-14T08:29:15.415Z,19.28
2022-09-14T08:31:44.203Z,19.36
2022-09-14T08:34:12.310Z,19.44
2022-09-14T08:36:40.833Z,19.38
2022-09-14T08:39:10.021Z,19.36
2022-09-14T08:41:55.988Z,19.35
2022-09-14T08:44:37.139Z,19.39
2022-09-14T08:47:12.819Z,19.41
2022-09-14T08:49:45.861Z,19.42
2022-09-14T08:52:22.903Z,19.60
2022-09-14T08:54:55.502Z,19.68
2022-09-14T08:57:53.253Z,19.89
2022-09-14T09:00:24.361Z,19.76
2022-09-14T09:03:09.425Z,19.83
2022-09-14T09:06:00.617Z,19.87
2022-09-14T09:08:37.155Z,19.75
2022-09-14T09:11:07.200Z,19.77
2022-09-14T09:13:37.896Z,19.87
2022-09-14T09:16:09.177Z,19.85
2022-09-14T09:18:42.478Z,19.87
2022-09-14T09:21:16.524Z,19.90
2022-09-14T09:23:43.920Z,20.04
2022-09-14T09:26:22.512Z,19.92
2022-09-14T09:28:52.680Z,19.89
2022-09-14T09:31:34.752Z,20.19
2022-09-14T09:34:04.050Z,20.25
2022-09-14T09:36:38.284Z,20.64
2022-09-14T09:39:07.546Z,20.92
2022-09-14T09:41:44.451Z,21.10
2022-09-14T09:44:11.603Z,21.15
2022-09-14T09:46:42.349Z,21.12
2022-09-14T09:49:18.982Z,21.27
2022-09-14T09:51:47.983Z,21.27
2022-09-14T09:54:14.274Z,21.38
2022-09-14T09:56:53.622Z,21.65
2022-09-14T09:59:40.945Z,21.92
2022-09-14T10:02:28.143Z,21.88
2022-09-14T10:05:09.733Z,22.13
2022-09-14T10:08:02.383Z,21.97
2022-09-14T10:10:34.730Z,21.72
2022-09-14T10:13:03.444Z,21.77
2022-09-14T10:15:32.060Z,21.86
2022-09-14T10:18:10.347Z,22.01
2022-09-14T10:20:39.387Z,21.98
2022-09-14T10:23:17.822Z,21.94
2022-09-14T10:25:51.510Z,21.88
2022-09-14T10:28:29.727Z,21.84
2022-09-14T10:31:00.618Z,22.02
2022-09-14T10:33:28.028Z,22.02
2022-09-14T10:36:13.925Z,22.06
2022-09-14T10:39:07.586Z,22.02
2022-09-14T10:42:16.593Z,22.02
2022-09-14T10:44:55.090Z,22.02
2022-09-14T10:47:45.841Z,22.13
2022-09-14T10:50:32.333Z,22.10
2022-09-14T10:53:23.007Z,22.13
2022-09-14T10:56:15.583Z,22.25
2022-09-14T10:59:17.733Z,22.30
2022-09-14T11:02:21.295Z,22.45
2022-09-14T11:05:06.598Z,22.60
2022-09-14T11:08:05.678Z,22.66
2022-09-14T11:11:11.523Z,22.85
2022-09-14T11:14:02.505Z,23.04
2022-09-14T11:16:42.103Z,22.98
2022-09-14T11:19:30.973Z,22.96
2022-09-14T11:22:12.817Z,23.03
2022-09-14T11:24:49.049Z,23.05
2022-09-14T11:27:21.331Z,23.09
2022-09-14T11:30:03.632Z,23.18
2022-09-14T11:32:42.589Z,23.37
2022-09-14T11:35:18.178Z,23.41
2022-09-14T11:38:10.950Z,23.39
2022-09-14T11:40:46.100Z,23.39
2022-09-14T11:43:19.354Z,23.26
2022-09-14T11:45:53.045Z,23.42
2022-09-14T11:48:42.363Z,23.57
2022-09-14T11:51:19.197Z,23.43
2022-09-14T11:53:46.644Z,23.32
2022-09-14T11:56:26.446Z,23.18
2022-09-14T11:58:55.371Z,23.28
2022-09-14T12:01:45.199Z,23.24
2022-09-14T12:04:14.430Z,23.26
2022-09-14T12:06:40.872Z,23.29
2022-09-14T12:09:31.961Z,23.17
2022-09-14T12:11:59.691Z,23.07
2022-09-14T12:14:30.079Z,22.93
2022-09-14T12:17:37.857Z,22.90
2022-09-14T12:20:43.363Z,22.70
2022-09-14T12:23:31.882Z,22.61
2022-09-14T12:26:12.583Z,22.53
2022-09-14T12:28:50.564Z,22.48
2022-09-14T12:31:57.907Z,22.37
2022-09-14T12:34:31.970Z,22.30
2022-09-14T12:37:29.720Z,22.23
2022-09-14T12:40:34.024Z,22.21
2022-09-14T12:43:34.791Z,22.17
2022-09-14T12:46:08.469Z,22.11
2022-09-14T12:48:55.455Z,22.07
2022-09-14T12:51:34.806Z,22.02
2022-09-14T12:54:23.020Z,21.98
2022-09-14T12:57:00.268Z,21.95
2022-09-14T12:59:36.094Z,21.92
2022-09-14T13:02:22.702Z,21.90
2022-09-14T13:04:53.696Z,21.83
2022-09-14T13:07:22.842Z,21.84
2022-09-14T13:09:57.592Z,21.84
2022-09-14T13:12:34.432Z,21.90
2022-09-14T13:15:05.457Z,21.87
2022-09-14T13:17:31.771Z,21.85
2022-09-14T13:20:05.792Z,21.80
2022-09-14T13:22:33.276Z,21.71
2022-09-14T13:25:01.450Z,21.64
2022-09-14T13:27:30.356Z,21.60
2022-09-14T13:30:09.760Z,21.60
2022-09-14T13:32:44.051Z,21.38
2022-09-14T13:35:20.576Z,20.85
2022-09-14T13:37:48.448Z,20.63
2022-09-14T13:40:22.398Z,20.44
2022-09-14T13:42:48.802Z,20.33
2022-09-14T13:45:15.341Z,20.23
2022-09-14T13:47:42.290Z,20.19
2022-09-14T13:50:09.088Z,20.14
2022-09-14T13:55:45.238Z,20.04
2022-09-14T13:58:11.531Z,20.00
2022-09-14T14:00:51.205Z,20.00
2022-09-14T14:03:30.176Z,20.00
2022-09-14T14:06:00.176Z,20.07
2022-09-14T14:08:37.179Z,20.05
2022-09-14T14:11:11.973Z,20.06
2022-09-14T14:13:38.669Z,20.06
2022-09-14T14:16:21.228Z,20.05
2022-09-14T14:18:50.877Z,20.06
2022-09-14T14:21:32.477Z,20.05
2022-09-14T14:24:20.347Z,20.04
2022-09-14T14:26:49.092Z,20.01
2022-09-14T14:29:16.386Z,19.99
2022-09-14T14:31:43.269Z,19.97
2022-09-14T14:34:25.937Z,19.92
2022-09-14T14:36:52.485Z,19.93
2022-09-14T14:39:24.310Z,19.91
2022-09-14T14:41:51.555Z,19.87
2022-09-14T14:44:24.560Z,19.86
2022-09-14T14:46:51.482Z,19.83
2022-09-14T14:49:20.151Z,19.86
2022-09-14T14:51:47.877Z,19.79
2022-09-14T14:54:18.545Z,19.72
2022-09-14T14:56:47.176Z,19.74
2022-09-14T14:59:25.915Z,19.71
2022-09-14T15:01:54.006Z,19.68
2022-09-14T15:04:21.328Z,19.68
2022-09-14T15:06:48.203Z,19.64
2022-09-14T15:09:22.193Z,19.63
2022-09-14T15:11:49.577Z,19.61
2022-09-14T15:14:18.715Z,19.62
2022-09-14T15:16:46.085Z,19.57
2022-09-14T15:19:12.904Z,19.56
2022-09-14T15:21:41.290Z,19.56
2022-09-14T15:24:08.350Z,19.52
2022-09-14T15:26:35.174Z,19.52
2022-09-14T15:29:06.758Z,19.46
2022-09-14T15:31:33.333Z,19.45
2022-09-14T15:33:59.978Z,19.44
2022-09-14T15:36:35.215Z,19.40
2022-09-14T15:39:06.923Z,19.41
2022-09-14T15:41:33.468Z,19.41
2022-09-14T15:44:00.183Z,19.42
2022-09-14T15:46:28.725Z,19.40
2022-09-14T15:48:55.072Z,19.45
2022-09-14T15:51:22.703Z,19.45
2022-09-14T15:53:49.705Z,19.48
2022-09-14T15:56:21.580Z,19.56
2022-09-14T15:58:50.348Z,19.57
2022-09-14T16:01:20.691Z,19.56
2022-09-14T16:03:47.119Z,19.64
2022-09-14T16:06:14.286Z,19.70
2022-09-14T16:08:43.515Z,19.69
2022-09-14T16:11:09.982Z,19.66
2022-09-14T16:13:36.632Z,19.62
2022-09-14T16:16:07.290Z,19.67
2022-09-14T16:18:34.289Z,19.67
2022-09-14T16:21:09.247Z,19.69
2022-09-14T16:23:38.735Z,19.70
2022-09-14T16:26:16.815Z,19.68
2022-09-14T16:28:50.567Z,19.69
2022-09-14T16:31:20.378Z,19.71
2022-09-14T16:33:51.388Z,19.74
2022-09-14T16:36:26.048Z,19.77
2022-09-14T16:38:55.379Z,19.75
2022-09-14T16:41:21.755Z,19.73
2022-09-14T16:43:48.150Z,19.79
2022-09-14T16:46:16.204Z,19.80
2022-09-14T16:48:45.520Z,19.83
2022-09-14T16:51:13.987Z,19.84
2022-09-14T16:53:45.421Z,19.89
2022-09-14T16:56:20.702Z,19.91
2022-09-14T16:58:48.878Z,19.90
2022-09-14T17:01:17.095Z,19.91
2022-09-14T17:03:45.669Z,19.87
2022-09-14T17:06:18.260Z,19.87
2022-09-14T17:08:45.546Z,19.85
2022-09-14T17:11:18.770Z,19.83
2022-09-14T17:13:46.386Z,19.81
2022-09-14T17:16:18.635Z,19.77
2022-09-14T17:18:48.742Z,19.74
2022-09-14T17:21:18.404Z,19.72
2022-09-14T17:23:44.982Z,19.68
2022-09-14T17:26:13.219Z,19.67
2022-09-14T17:28:44.464Z,19.65
2022-09-14T17:31:12.972Z,19.64
2022-09-14T17:33:39.728Z,19.58
2022-09-14T17:36:06.842Z,19.54
2022-09-14T17:38:37.276Z,19.48
2022-09-14T17:41:06.079Z,19.44
2022-09-14T17:43:33.670Z,19.44
2022-09-14T17:46:00.547Z,19.44
2022-09-14T17:48:28.018Z,19.44
2022-09-14T17:50:55.254Z,19.41
2022-09-14T17:53:21.749Z,19.37
2022-09-14T17:55:48.700Z,19.37
2022-09-14T17:58:19.583Z,19.38
2022-09-14T18:00:46.370Z,19.39
2022-09-14T18:03:13.000Z,19.37
2022-09-14T18:05:39.451Z,19.33
2022-09-14T18:08:05.827Z,19.32
2022-09-14T18:10:35.158Z,19.35
2022-09-14T18:13:01.635Z,19.36
2022-09-14T18:15:31.014Z,19.38
2022-09-14T18:17:57.761Z,19.38
2022-09-14T18:20:24.245Z,19.40
2022-09-14T18:22:50.697Z,19.38
2022-09-14T18:25:17.255Z,19.38
2022-09-14T18:27:43.716Z,19.41
2022-09-14T18:30:10.754Z,19.39
2022-09-14T18:32:37.342Z,19.41
2022-09-14T18:35:04.241Z,19.37
2022-09-14T18:37:30.870Z,19.40
2022-09-14T18:39:59.638Z,19.38
2022-09-14T18:42:26.013Z,19.35
2022-09-14T18:44:56.239Z,19.34
2022-09-14T18:47:22.703Z,19.31
2022-09-14T18:49:49.992Z,19.31
2022-09-14T18:52:18.217Z,19.27
2022-09-14T18:54:44.745Z,19.30
2022-09-14T18:57:11.250Z,19.30
2022-09-14T18:59:37.625Z,19.30
2022-09-14T19:02:04.163Z,19.30
2022-09-14T19:04:30.735Z,19.28
2022-09-14T19:07:02.040Z,19.29
2022-09-14T19:09:28.840Z,19.30
2022-09-14T19:11:55.336Z,19.31
2022-09-14T19:14:22.135Z,19.31
2022-09-14T19:16:50.575Z,19.29
2022-09-14T19:19:26.159Z,19.27
2022-09-14T19:21:54.216Z,19.26
2022-09-14T19:24:20.735Z,19.24
2022-09-14T19:26:50.164Z,19.23
2022-09-14T19:29:20.325Z,19.21
2022-09-14T19:31:50.957Z,19.17
2022-09-14T19:34:19.209Z,19.18
2022-09-14T19:36:46.488Z,19.16
2022-09-14T19:39:12.873Z,19.16
2022-09-14T19:41:39.336Z,19.14
2022-09-14T19:44:07.593Z,19.12
2022-09-14T19:46:36.331Z,19.09
2022-09-14T19:49:02.824Z,19.08
2022-09-14T19:51:30.741Z,19.05
2022-09-14T19:53:59.397Z,19.02
2022-09-14T19:56:28.791Z,18.99
2022-09-14T19:58:58.074Z,18.96
2022-09-14T20:01:26.523Z,18.93
2022-09-14T20:03:53.782Z,18.90
2022-09-14T20:06:35.335Z,18.85
2022-09-14T20:09:14.695Z,18.83
2022-09-14T20:11:43.006Z,18.84
2022-09-14T20:14:15.314Z,18.81
2022-09-14T20:16:47.618Z,18.90
2022-09-14T20:19:18.163Z,18.97
2022-09-14T20:21:46.122Z,18.94
2022-09-14T20:24:17.115Z,18.86
2022-09-14T20:26:50.365Z,18.85
2022-09-14T20:29:18.130Z,18.86
2022-09-14T20:31:45.860Z,18.83
2022-09-14T20:34:13.312Z,18.76
2022-09-14T20:36:42.340Z,18.67
2022-09-14T20:39:09.263Z,18.64
2022-09-14T20:41:36.134Z,18.64
2022-09-14T20:44:05.945Z,18.55
2022-09-14T20:46:39.286Z,18.52
2022-09-14T20:49:14.177Z,18.49
2022-09-14T20:51:41.616Z,18.47
2022-09-14T20:54:11.262Z,18.45
2022-09-14T20:56:38.116Z,18.40
2022-09-14T20:59:07.139Z,18.36
2022-09-14T21:01:35.393Z,18.37
2022-09-14T21:04:09.020Z,18.33
2022-09-14T21:06:37.852Z,18.30
2022-09-14T21:09:08.139Z,18.28
2022-09-14T21:11:34.878Z,18.25
2022-09-14T21:14:25.401Z,18.24
2022-09-14T21:16:56.839Z,18.21
2022-09-14T21:19:26.970Z,18.22
2022-09-14T21:21:53.824Z,18.13
2022-09-14T21:24:21.685Z,18.10
2022-09-14T21:26:48.177Z,18.09
2022-09-14T21:29:22.838Z,18.08
2022-09-14T21:31:49.686Z,18.04
2022-09-14T21:34:17.152Z,18.05
2022-09-14T21:36:46.828Z,18.05
2022-09-14T21:39:31.407Z,18.08
2022-09-14T21:42:00.921Z,18.08
2022-09-14T21:44:32.998Z,18.09
2022-09-14T21:47:00.532Z,18.12
2022-09-14T21:49:27.243Z,18.12
2022-09-14T21:51:56.174Z,18.08
2022-09-14T21:54:22.756Z,18.14
2022-09-14T21:56:49.389Z,18.14
2022-09-14T21:59:19.059Z,18.11
2022-09-14T22:01:50.668Z,18.07
2022-09-14T22:04:19.924Z,18.06
2022-09-14T22:06:46.841Z,18.01
2022-09-14T22:09:15.230Z,18.04
2022-09-14T22:11:41.692Z,18.05
2022-09-14T22:14:13.159Z,18.02
2022-09-14T22:16:40.663Z,18.01
2022-09-14T22:19:12.730Z,17.99
2022-09-14T22:21:39.537Z,17.98
2022-09-14T22:24:10.547Z,17.89
2022-09-14T22:26:42.292Z,17.90
2022-09-14T22:29:09.531Z,18.02
2022-09-14T22:31:38.487Z,18.01
2022-09-14T22:34:05.286Z,18.07
2022-09-14T22:36:32.289Z,18.06
2022-09-14T22:39:00.276Z,18.02
2022-09-14T22:41:29.867Z,18.09
2022-09-14T22:43:56.804Z,18.07
2022-09-14T22:46:24.281Z,18.05
2022-09-14T22:48:51.977Z,17.99
2022-09-14T22:51:22.365Z,18.02
2022-09-14T22:53:49.191Z,18.02
2022-09-14T22:56:18.447Z,18.01
2022-09-14T22:58:46.356Z,17.99
2022-09-14T23:01:16.080Z,18.02
2022-09-14T23:03:42.867Z,18.00
2022-09-14T23:06:10.125Z,18.00
2022-09-14T23:08:37.573Z,18.00
2022-09-14T23:11:10.670Z,18.01
2022-09-14T23:13:39.129Z,18.01
2022-09-14T23:16:15.104Z,17.96
2022-09-14T23:18:42.183Z,17.98
2022-09-14T23:21:11.575Z,17.96
2022-09-14T23:23:38.415Z,17.96
2022-09-14T23:26:07.912Z,17.92
2022-09-14T23:28:34.945Z,17.94
2022-09-14T23:31:01.847Z,17.96
2022-09-14T23:33:29.552Z,18.00
2022-09-14T23:35:56.289Z,18.02
2022-09-14T23:38:23.575Z,18.02
2022-09-14T23:40:50.555Z,18.05
2022-09-14T23:43:18.346Z,18.05
2022-09-14T23:45:45.980Z,18.04
2022-09-14T23:48:13.897Z,18.05
2022-09-14T23:50:40.501Z,18.10
2022-09-14T23:53:07.324Z,18.10
2022-09-14T23:55:36.289Z,18.15
2022-09-14T23:58:03.528Z,18.15
